createdAt,value
2022-09-05T00:00:22.441Z,14.30
2022-09-05T00:03:23.562Z,14.30
2022-09-05T00:06:09.258Z,14.30
2022-09-05T00:09:08.917Z,14.10
2022-09-05T00:11:49.990Z,14.20
2022-09-05T00:15:16.684Z,14.30
2022-09-05T00:21:49.578Z,14.30
2022-09-05T00:24:30.375Z,14.10
2022-09-05T00:24:54.705Z,14.10
2022-09-05T00:27:43.969Z,13.90
2022-09-05T00:31:51.180Z,14.00
2022-09-05T00:33:32.040Z,14.00
2022-09-05T00:36:27.535Z,14.00
2022-09-05T00:39:04.366Z,13.90
2022-09-05T00:41:36.069Z,13.90
2022-09-05T00:44:10.491Z,13.90
2022-09-05T00:46:50.164Z,13.90
2022-09-05T00:49:29.712Z,13.70
2022-09-05T00:52:09.730Z,13.70
2022-09-05T00:55:24.533Z,13.60
2022-09-05T00:58:22.612Z,13.70
2022-09-05T01:00:59.269Z,13.70
2022-09-05T01:03:55.857Z,13.60
2022-09-05T01:06:50.668Z,13.60
2022-09-05T01:09:43.878Z,13.50
2022-09-05T01:12:37.755Z,13.50
2022-09-05T01:15:25.070Z,13.50
2022-09-05T01:18:49.867Z,13.60
2022-09-05T01:22:16.739Z,13.60
2022-09-05T01:25:14.767Z,13.50
2022-09-05T01:28:46.154Z,13.30
2022-09-05T01:31:03.681Z,13.20
2022-09-05T01:33:49.476Z,13.20
2022-09-05T01:36:46.641Z,13.20
2022-09-05T01:40:15.113Z,13.10
2022-09-05T01:42:39.659Z,13.00
2022-09-05T01:45:24.643Z,13.10
2022-09-05T01:48:16.376Z,13.10
2022-09-05T01:50:57.420Z,13.00
2022-09-05T01:53:41.697Z,12.90
2022-09-05T01:56:38.617Z,12.90
2022-09-05T01:59:27.460Z,13.00
2022-09-05T02:02:27.728Z,13.00
2022-09-05T02:05:47.846Z,12.80
2022-09-05T02:08:48.886Z,12.80
2022-09-05T02:11:34.936Z,12.90
2022-09-05T02:14:34.281Z,12.90
2022-09-05T02:17:49.599Z,12.90
2022-09-05T02:20:24.359Z,12.80
2022-09-05T02:23:27.364Z,12.70
2022-09-05T02:26:08.561Z,12.80
2022-09-05T02:28:52.617Z,12.80
2022-09-05T02:31:32.991Z,12.90
2022-09-05T02:34:16.460Z,12.90
2022-09-05T02:36:54.812Z,13.00
2022-09-05T02:45:01.322Z,12.90
2022-09-05T02:45:07.358Z,12.90
2022-09-05T02:45:59.103Z,12.60
2022-09-05T02:48:47.277Z,12.70
2022-09-05T02:57:23.742Z,12.70
2022-09-05T02:57:36.107Z,12.60
2022-09-05T02:58:07.555Z,12.50
2022-09-05T03:00:42.862Z,12.60
2022-09-05T03:03:29.393Z,12.60
2022-09-05T03:06:07.616Z,12.70
2022-09-05T03:09:17.294Z,12.80
2022-09-05T03:12:46.411Z,12.80
2022-09-05T03:16:09.413Z,12.80
2022-09-05T03:19:46.650Z,12.80
2022-09-05T03:23:03.464Z,12.70
2022-09-05T03:26:22.070Z,12.60
2022-09-05T03:29:58.433Z,12.50
2022-09-05T03:33:25.436Z,12.60
2022-09-05T03:37:07.434Z,12.60
2022-09-05T03:40:16.826Z,12.50
2022-09-05T03:43:37.651Z,12.50
2022-09-05T03:46:45.748Z,12.50
2022-09-05T03:49:44.043Z,12.40
2022-09-05T03:57:18.468Z,12.40
2022-09-05T03:57:24.818Z,12.40
2022-09-05T03:59:57.329Z,12.30
2022-09-05T04:08:07.918Z,12.30
2022-09-05T04:08:19.112Z,12.30
2022-09-05T04:08:41.715Z,12.20
2022-09-05T04:11:21.859Z,12.30
2022-09-05T04:13:57.894Z,12.40
2022-09-05T04:16:36.177Z,12.50
2022-09-05T04:19:18.660Z,12.50
2022-09-05T04:21:59.830Z,12.50
2022-09-05T04:24:44.825Z,12.60
2022-09-05T04:27:33.778Z,12.50
2022-09-05T04:30:38.395Z,12.50
2022-09-05T04:33:08.077Z,12.50
2022-09-05T04:35:55.341Z,12.60
2022-09-05T04:38:40.594Z,12.60
2022-09-05T04:41:14.883Z,12.30
2022-09-05T04:43:51.169Z,12.20
2022-09-05T04:46:30.980Z,12.30
2022-09-05T04:49:16.459Z,12.40
2022-09-05T04:52:26.886Z,12.40
2022-09-05T04:55:09.254Z,12.50
2022-09-05T04:57:49.293Z,12.50
2022-09-05T05:04:06.586Z,12.60
2022-09-05T05:06:09.093Z,12.70
2022-09-05T05:06:45.028Z,12.70
2022-09-05T05:09:24.973Z,12.70
2022-09-05T05:17:53.621Z,12.80
2022-09-05T05:18:11.320Z,12.80
2022-09-05T05:18:49.230Z,12.90
2022-09-05T05:21:04.007Z,13.00
2022-09-05T05:23:44.198Z,13.00
2022-09-05T05:26:25.455Z,13.10
2022-09-05T05:29:04.307Z,13.10
2022-09-05T05:31:39.148Z,13.30
2022-09-05T05:34:25.189Z,13.30
2022-09-05T05:37:03.793Z,13.30
2022-09-05T05:39:44.080Z,13.50
2022-09-05T05:42:22.651Z,13.60
2022-09-05T05:44:56.425Z,13.70
2022-09-05T05:47:32.973Z,14.40
2022-09-05T05:50:11.396Z,15.30
2022-09-05T05:53:28.944Z,16.30
2022-09-05T05:56:55.877Z,17.00
2022-09-05T06:00:02.911Z,17.60
2022-09-05T06:03:30.344Z,18.10
2022-09-05T06:06:23.942Z,18.80
2022-09-05T06:14:49.880Z,19.40
2022-09-05T06:14:55.327Z,20.00
2022-09-05T06:17:31.927Z,20.80
2022-09-05T06:22:05.834Z,22.10
2022-09-05T06:24:35.191Z,22.90
2022-09-05T06:28:18.129Z,23.10
2022-09-05T06:31:02.095Z,22.60
2022-09-05T06:34:05.856Z,22.70
2022-09-05T06:36:55.639Z,23.10
2022-09-05T06:39:52.567Z,23.40
2022-09-05T06:42:42.578Z,24.30
2022-09-05T06:45:58.502Z,25.00
2022-09-05T06:48:46.373Z,25.20
2022-09-05T06:52:13.139Z,25.60
2022-09-05T06:55:31.167Z,25.40
2022-09-05T06:58:48.069Z,25.30
2022-09-05T07:01:38.392Z,25.10
2022-09-05T07:04:53.673Z,25.90
2022-09-05T07:07:45.677Z,26.90
2022-09-05T07:10:38.435Z,26.80
2022-09-05T07:13:19.751Z,27.30
2022-09-05T07:16:04.537Z,27.00
2022-09-05T07:18:52.971Z,26.60
2022-09-05T07:21:35.272Z,27.00
2022-09-05T07:24:11.989Z,27.60
2022-09-05T07:26:53.776Z,27.40
2022-09-05T07:29:32.461Z,27.20
2022-09-05T07:32:06.476Z,27.60
2022-09-05T07:34:41.072Z,28.90
2022-09-05T07:37:20.983Z,29.90
2022-09-05T07:40:02.367Z,29.90
2022-09-05T07:43:08.846Z,31.20
2022-09-05T07:45:55.490Z,30.80
2022-09-05T07:48:35.114Z,32.10
2022-09-05T07:56:50.218Z,33.00
2022-09-05T07:57:15.989Z,33.70
2022-09-05T08:07:50.035Z,37.20
2022-09-05T08:11:22.187Z,37.40
2022-09-05T08:13:29.423Z,38.80
2022-09-05T08:16:10.526Z,38.10
2022-09-05T08:18:50.567Z,37.80
2022-09-05T08:21:28.433Z,36.80
2022-09-05T08:24:13.624Z,37.80
2022-09-05T08:26:51.273Z,39.00
2022-09-05T08:29:34.921Z,37.10
2022-09-05T08:32:10.718Z,35.70
2022-09-05T08:34:50.344Z,35.30
2022-09-05T08:37:23.593Z,35.80
2022-09-05T08:40:10.659Z,35.90
2022-09-05T08:43:22.820Z,36.20
2022-09-05T08:46:45.796Z,35.90
2022-09-05T08:49:32.394Z,37.30
2022-09-05T08:52:15.666Z,39.00
2022-09-05T08:55:07.999Z,40.20
2022-09-05T08:58:08.686Z,40.50
2022-09-05T09:00:55.094Z,40.90
2022-09-05T09:03:41.205Z,39.80
2022-09-05T09:06:27.801Z,39.20
2022-09-05T09:09:18.476Z,39.30
2022-09-05T09:12:00.029Z,40.00
2022-09-05T09:14:43.716Z,40.90
2022-09-05T09:17:32.877Z,41.50
2022-09-05T09:20:18.485Z,42.80
2022-09-05T09:23:00.697Z,41.90
2022-09-05T09:25:39.224Z,42.60
2022-09-05T09:28:51.402Z,41.80
2022-09-05T09:31:45.840Z,42.70
2022-09-05T09:34:51.808Z,43.30
2022-09-05T09:38:08.203Z,43.60
2022-09-05T09:41:10.731Z,43.90
2022-09-05T09:44:45.705Z,42.90
2022-09-05T09:47:23.338Z,43.10
2022-09-05T09:50:25.033Z,42.60
2022-09-05T09:53:26.027Z,42.30
2022-09-05T09:56:55.117Z,42.30
2022-09-05T09:59:54.655Z,41.90
2022-09-05T10:04:31.349Z,41.50
2022-09-05T10:10:49.409Z,42.90
2022-09-05T10:10:51.623Z,42.70
2022-09-05T10:14:22.546Z,42.70
2022-09-05T10:17:40.809Z,42.70
2022-09-05T10:20:57.909Z,43.20
2022-09-05T10:24:28.367Z,43.40
2022-09-05T10:27:32.618Z,41.90
2022-09-05T10:30:12.872Z,42.50
2022-09-05T10:35:15.253Z,43.40
2022-09-05T10:36:06.198Z,44.10
2022-09-05T10:38:46.087Z,41.40
2022-09-05T10:41:23.069Z,40.00
2022-09-05T10:44:02.285Z,39.30
2022-09-05T10:46:54.256Z,39.60
2022-09-05T10:49:33.814Z,40.10
2022-09-05T10:52:18.456Z,38.10
2022-09-05T10:55:15.686Z,37.20
2022-09-05T10:58:01.870Z,37.40
2022-09-05T11:02:22.802Z,38.70
2022-09-05T11:03:54.175Z,39.50
2022-09-05T11:06:51.081Z,39.80
2022-09-05T11:09:53.357Z,40.40
2022-09-05T11:12:57.610Z,39.90
2022-09-05T11:15:45.868Z,37.10
2022-09-05T11:19:02.258Z,34.60
2022-09-05T11:22:03.926Z,33.50
2022-09-05T11:24:55.687Z,33.90
2022-09-05T11:27:37.725Z,34.70
2022-09-05T11:30:29.103Z,35.10
2022-09-05T11:36:27.619Z,35.70
2022-09-05T11:39:58.224Z,36.90
2022-09-05T11:41:01.403Z,38.40
2022-09-05T11:44:26.056Z,38.60
2022-09-05T11:47:45.581Z,39.00
2022-09-05T11:50:59.218Z,40.00
2022-09-05T11:54:22.535Z,41.40
2022-09-05T11:57:34.422Z,40.80
2022-09-05T12:00:32.126Z,40.80
2022-09-05T12:03:59.236Z,41.70
2022-09-05T12:07:29.889Z,41.20
2022-09-05T12:10:46.446Z,40.70
2022-09-05T12:13:46.359Z,39.50
2022-09-05T12:16:45.415Z,40.10
2022-09-05T12:19:36.845Z,41.20
2022-09-05T12:22:26.397Z,42.70
2022-09-05T12:27:40.718Z,42.10
2022-09-05T12:29:33.004Z,42.70
2022-09-05T12:33:11.448Z,42.00
2022-09-05T12:36:12.398Z,41.30
2022-09-05T12:40:21.336Z,39.90
2022-09-05T12:41:44.627Z,37.90
2022-09-05T12:44:39.567Z,35.40
2022-09-05T12:47:19.000Z,34.00
2022-09-05T12:50:14.343Z,32.90
2022-09-05T12:52:48.340Z,32.70
2022-09-05T12:55:31.351Z,32.40
2022-09-05T13:03:01.951Z,31.80
2022-09-05T13:03:09.694Z,31.90
2022-09-05T13:04:30.994Z,31.80
2022-09-05T13:07:09.589Z,31.90
2022-09-05T13:11:28.191Z,32.00
2022-09-05T13:14:58.076Z,32.30
2022-09-05T13:15:44.631Z,34.30
2022-09-05T13:18:19.101Z,36.60
2022-09-05T13:21:07.770Z,36.50
2022-09-05T13:23:48.694Z,35.60
2022-09-05T13:26:33.421Z,37.50
2022-09-05T13:29:14.350Z,40.00
2022-09-05T13:38:04.874Z,41.90
2022-09-05T13:38:13.810Z,41.50
2022-09-05T13:42:30.352Z,41.10
2022-09-05T13:45:03.913Z,39.50
2022-09-05T13:48:27.797Z,37.10
2022-09-05T13:51:13.153Z,37.10
2022-09-05T13:53:52.266Z,38.60
2022-09-05T13:56:32.343Z,39.20
2022-09-05T13:59:11.195Z,40.20
2022-09-05T14:02:29.105Z,41.10
2022-09-05T14:05:28.067Z,41.70
2022-09-05T14:08:33.623Z,37.90
2022-09-05T14:11:50.821Z,37.70
2022-09-05T14:17:55.031Z,39.10
2022-09-05T14:20:49.445Z,40.60
2022-09-05T14:23:27.188Z,40.00
2022-09-05T14:26:02.749Z,39.60
2022-09-05T14:28:40.805Z,38.80
2022-09-05T14:37:36.917Z,37.50
2022-09-05T14:37:46.828Z,35.90
2022-09-05T14:38:09.717Z,34.70
2022-09-05T14:41:44.198Z,33.30
2022-09-05T14:45:33.245Z,32.40
2022-09-05T14:48:46.022Z,31.70
2022-09-05T14:51:43.376Z,30.70
2022-09-05T15:02:40.791Z,35.50
2022-09-05T15:02:41.037Z,32.90
2022-09-05T15:03:15.249Z,36.80
2022-09-05T15:05:50.764Z,36.20
2022-09-05T15:11:26.278Z,35.30
2022-09-05T15:12:24.051Z,35.20
2022-09-05T15:14:21.306Z,36.10
2022-09-05T15:17:02.274Z,36.00
2022-09-05T15:20:05.607Z,36.90
2022-09-05T15:22:41.936Z,37.40
2022-09-05T15:25:21.350Z,38.00
2022-09-05T15:27:54.560Z,38.90
2022-09-05T15:30:35.098Z,38.70
2022-09-05T15:33:26.373Z,38.40
2022-09-05T15:35:57.099Z,38.40
2022-09-05T15:38:38.766Z,37.30
2022-09-05T15:41:26.397Z,36.90
2022-09-05T15:44:09.616Z,37.00
2022-09-05T15:47:01.582Z,37.50
2022-09-05T15:49:42.922Z,38.30
2022-09-05T15:52:40.953Z,38.10
2022-09-05T15:55:18.768Z,36.70
2022-09-05T15:57:52.779Z,36.30
2022-09-05T16:00:51.227Z,35.10
2022-09-05T16:05:54.727Z,33.40
2022-09-05T16:10:36.591Z,31.80
2022-09-05T16:10:43.466Z,31.00
2022-09-05T16:17:46.155Z,29.50
2022-09-05T16:23:16.276Z,28.90
2022-09-05T16:23:23.594Z,28.70
2022-09-05T16:24:10.500Z,28.50
2022-09-05T16:26:48.747Z,28.50
2022-09-05T16:29:26.789Z,28.50
2022-09-05T16:32:19.995Z,28.60
2022-09-05T16:34:58.955Z,28.70
2022-09-05T16:37:38.088Z,28.80
2022-09-05T16:40:21.206Z,28.70
2022-09-05T16:42:57.294Z,28.50
2022-09-05T16:45:40.906Z,28.50
2022-09-05T16:48:39.713Z,28.30
2022-09-05T16:51:35.300Z,28.20
2022-09-05T16:54:16.829Z,28.10
2022-09-05T16:56:51.163Z,28.00
2022-09-05T16:59:28.570Z,28.00
2022-09-05T17:02:11.986Z,27.90
2022-09-05T17:05:04.096Z,27.60
2022-09-05T17:08:06.937Z,27.40
2022-09-05T17:10:49.352Z,27.20
2022-09-05T17:13:44.118Z,27.10
2022-09-05T17:16:23.425Z,26.90
2022-09-05T17:18:59.490Z,26.80
2022-09-05T17:24:41.782Z,26.70
2022-09-05T17:29:20.142Z,26.70
2022-09-05T17:29:25.747Z,26.60
2022-09-05T17:33:05.974Z,26.30
2022-09-05T17:35:57.764Z,26.10
2022-09-05T17:39:09.956Z,26.00
2022-09-05T17:42:05.524Z,25.90
2022-09-05T17:44:53.179Z,25.60
2022-09-05T17:47:35.681Z,25.40
2022-09-05T17:50:22.462Z,25.20
2022-09-05T17:53:25.979Z,24.90
2022-09-05T17:56:29.587Z,24.70
2022-09-05T17:59:31.544Z,24.50
2022-09-05T18:02:34.417Z,24.20
2022-09-05T18:05:09.020Z,23.90
2022-09-05T18:07:58.599Z,23.60
2022-09-05T18:11:13.948Z,23.40
2022-09-05T18:14:01.189Z,23.20
2022-09-05T18:16:42.061Z,23.00
2022-09-05T18:20:10.989Z,22.70
2022-09-05T18:22:47.173Z,22.60
2022-09-05T18:25:51.033Z,22.50
2022-09-05T18:28:32.223Z,22.30
2022-09-05T18:32:05.354Z,22.20
2022-09-05T18:34:45.486Z,22.00
2022-09-05T18:37:53.024Z,21.80
2022-09-05T18:41:01.974Z,21.70
2022-09-05T18:44:01.628Z,21.60
2022-09-05T18:46:46.951Z,21.50
2022-09-05T18:50:24.885Z,21.30
2022-09-05T18:52:23.969Z,21.20
2022-09-05T18:56:10.184Z,21.10
2022-09-05T18:57:59.008Z,20.90
2022-09-05T19:00:44.280Z,20.90
2022-09-05T19:03:25.215Z,20.90
2022-09-05T19:06:36.634Z,20.90
2022-09-05T19:09:02.365Z,20.80
2022-09-05T19:11:38.452Z,20.70
2022-09-05T19:14:37.338Z,20.70
2022-09-05T19:17:17.972Z,20.70
2022-09-05T19:20:31.261Z,20.60
2022-09-05T19:23:13.306Z,20.60
2022-09-05T19:26:02.039Z,20.60
2022-09-05T19:33:15.692Z,20.60
2022-09-05T19:36:57.056Z,20.60
2022-09-05T19:37:03.122Z,20.50
2022-09-05T19:37:41.256Z,20.40
2022-09-05T19:47:28.176Z,20.20
2022-09-05T19:47:35.374Z,19.80
2022-09-05T19:47:35.918Z,19.90
2022-09-05T19:49:11.524Z,19.80
2022-09-05T19:51:44.128Z,19.80
2022-09-05T19:54:31.860Z,19.70
2022-09-05T19:57:08.685Z,19.70
2022-09-05T19:59:42.322Z,19.60
2022-09-05T20:02:24.794Z,19.60
2022-09-05T20:04:57.425Z,19.50
2022-09-05T20:07:30.402Z,19.50
2022-09-05T20:10:04.397Z,19.50
2022-09-05T20:12:41.748Z,19.50
2022-09-05T20:15:24.468Z,19.40
2022-09-05T20:17:56.338Z,19.30
2022-09-05T20:20:30.655Z,19.20
2022-09-05T20:23:04.943Z,19.10
2022-09-05T20:25:39.724Z,19.00
2022-09-05T20:28:16.981Z,19.00
2022-09-05T20:30:54.046Z,18.90
2022-09-05T20:33:31.669Z,18.80
2022-09-05T20:39:26.495Z,18.80
2022-09-05T20:43:22.630Z,18.80
2022-09-05T20:43:24.763Z,18.80
2022-09-05T20:44:55.559Z,18.80
2022-09-05T20:54:07.326Z,18.80
2022-09-05T20:54:18.048Z,18.70
2022-09-05T20:54:18.674Z,18.70
2022-09-05T20:56:23.802Z,18.60
2022-09-05T20:58:56.105Z,18.30
2022-09-05T21:01:32.460Z,18.10
2022-09-05T21:04:05.194Z,18.20
2022-09-05T21:06:41.355Z,18.20
2022-09-05T21:09:24.930Z,18.20
2022-09-05T21:11:56.505Z,18.20
2022-09-05T21:14:30.962Z,18.20
2022-09-05T21:17:14.956Z,18.20
2022-09-05T21:19:53.893Z,18.20
2022-09-05T21:22:39.391Z,18.00
2022-09-05T21:25:43.974Z,18.00
2022-09-05T21:28:36.415Z,18.00
2022-09-05T21:31:15.966Z,17.90
2022-09-05T21:33:49.229Z,17.80
2022-09-05T21:36:27.966Z,17.80
2022-09-05T21:38:58.346Z,17.70
2022-09-05T21:41:28.293Z,17.70
2022-09-05T21:47:37.456Z,17.60
2022-09-05T21:47:45.070Z,17.70
2022-09-05T21:49:45.806Z,17.60
2022-09-05T21:52:15.780Z,17.60
2022-09-05T21:59:15.030Z,17.60
2022-09-05T21:59:16.405Z,17.50
2022-09-05T22:00:29.225Z,17.50
2022-09-05T22:02:59.453Z,17.40
2022-09-05T22:05:34.361Z,17.40
2022-09-05T22:08:06.132Z,17.30
2022-09-05T22:10:51.597Z,17.30
2022-09-05T22:13:22.841Z,17.30
2022-09-05T22:15:53.018Z,17.30
2022-09-05T22:18:24.398Z,17.20
2022-09-05T22:21:32.197Z,17.20
2022-09-05T22:23:51.585Z,16.90
2022-09-05T22:26:24.982Z,16.90
2022-09-05T22:28:55.131Z,17.00
2022-09-05T22:31:26.356Z,16.90
2022-09-05T22:33:58.046Z,16.90
2022-09-05T22:36:32.877Z,16.80
2022-09-05T22:39:02.839Z,16.80
2022-09-05T22:41:33.296Z,16.80
2022-09-05T22:44:03.305Z,16.80
2022-09-05T22:46:34.275Z,16.90
2022-09-05T22:49:04.317Z,16.90
2022-09-05T22:51:36.925Z,16.90
2022-09-05T22:54:07.279Z,16.80
2022-09-05T22:56:39.494Z,16.70
2022-09-05T22:59:14.782Z,16.70
2022-09-05T23:01:44.910Z,16.60
2022-09-05T23:04:14.969Z,16.60
2022-09-05T23:06:47.686Z,16.60
2022-09-05T23:09:17.762Z,16.50
2022-09-05T23:11:47.913Z,16.50
2022-09-05T23:14:17.853Z,16.50
2022-09-05T23:16:48.111Z,16.50
2022-09-05T23:19:18.111Z,16.50
2022-09-05T23:21:51.238Z,16.50
2022-09-05T23:24:22.058Z,16.60
2022-09-05T23:26:52.204Z,16.60
2022-09-05T23:29:22.352Z,16.50
2022-09-05T23:31:52.443Z,16.20
2022-09-05T23:34:22.581Z,16.10
2022-09-05T23:36:55.128Z,16.10
2022-09-05T23:39:25.298Z,16.10
2022-09-05T23:41:55.500Z,16.00
2022-09-05T23:44:25.615Z,16.10
2022-09-05T23:46:55.611Z,16.00
2022-09-05T23:49:25.736Z,15.90
2022-09-05T23:51:58.369Z,15.90
2022-09-05T23:54:28.880Z,15.90
2022-09-05T23:56:58.827Z,16.00
2022-09-05T23:59:29.150Z,16.00
